createdAt,value
2023-02-12T00:00:10.417Z,22.47
2023-02-12T00:02:43.935Z,22.46
2023-02-12T00:05:11.912Z,22.50
2023-02-12T00:07:39.582Z,22.48
2023-02-12T00:10:08.199Z,22.51
2023-02-12T00:12:35.708Z,22.49
2023-02-12T00:15:03.600Z,22.52
2023-02-12T00:17:32.597Z,22.52
2023-02-12T00:20:00.161Z,22.52
2023-02-12T00:22:27.945Z,22.52
2023-02-12T00:24:56.030Z,22.51
2023-02-12T00:27:24.253Z,22.54
2023-02-12T00:29:51.895Z,22.52
2023-02-12T00:32:19.628Z,22.53
2023-02-12T00:34:48.881Z,22.51
2023-02-12T00:37:17.242Z,22.52
2023-02-12T00:39:45.045Z,22.50
2023-02-12T00:42:12.786Z,22.54
2023-02-12T00:44:40.394Z,22.53
2023-02-12T00:47:07.983Z,22.51
2023-02-12T00:49:36.061Z,22.55
2023-02-12T00:52:05.976Z,22.56
2023-02-12T00:54:33.562Z,22.55
2023-02-12T00:57:01.083Z,22.56
2023-02-12T00:59:30.809Z,22.52
2023-02-12T01:01:58.581Z,22.55
2023-02-12T01:04:26.290Z,22.58
2023-02-12T01:06:55.781Z,22.55
2023-02-12T01:09:24.825Z,22.55
2023-02-12T01:11:52.371Z,22.55
2023-02-12T01:14:19.930Z,22.55
2023-02-12T01:16:47.582Z,22.57
2023-02-12T01:19:15.548Z,22.55
2023-02-12T01:21:43.821Z,22.57
2023-02-12T01:24:11.581Z,22.57
2023-02-12T01:26:40.719Z,22.59
2023-02-12T01:29:08.700Z,22.59
2023-02-12T01:31:38.318Z,22.55
2023-02-12T01:34:06.152Z,22.54
2023-02-12T01:36:34.501Z,22.54
2023-02-12T01:39:02.445Z,22.52
2023-02-12T01:41:32.044Z,22.51
2023-02-12T01:44:15.225Z,22.50
2023-02-12T01:46:44.711Z,22.51
2023-02-12T01:49:17.152Z,22.51
2023-02-12T01:51:46.525Z,22.54
2023-02-12T01:54:17.626Z,22.53
2023-02-12T01:56:45.301Z,22.49
2023-02-12T01:59:14.580Z,22.51
2023-02-12T02:01:42.360Z,22.55
2023-02-12T02:04:15.813Z,22.54
2023-02-12T02:06:50.704Z,22.56
2023-02-12T02:09:19.680Z,22.56
2023-02-12T02:11:47.267Z,22.57
2023-02-12T02:14:16.706Z,22.60
2023-02-12T02:16:54.457Z,22.59
2023-02-12T02:19:36.198Z,22.59
2023-02-12T02:22:18.537Z,22.57
2023-02-12T02:25:14.787Z,22.57
2023-02-12T02:27:56.476Z,22.59
2023-02-12T02:30:36.010Z,22.60
2023-02-12T02:33:16.228Z,22.57
2023-02-12T02:35:53.784Z,22.56
2023-02-12T02:38:29.104Z,22.56
2023-02-12T02:41:03.496Z,22.57
2023-02-12T02:43:35.430Z,22.55
2023-02-12T02:46:07.622Z,22.53
2023-02-12T02:48:39.141Z,22.52
2023-02-12T02:51:11.387Z,22.52
2023-02-12T02:53:43.341Z,22.51
2023-02-12T02:56:15.912Z,22.51
2023-02-12T02:58:48.113Z,22.48
2023-02-12T03:01:21.251Z,22.51
2023-02-12T03:03:53.326Z,22.50
2023-02-12T03:06:27.830Z,22.51
2023-02-12T03:08:58.683Z,22.51
2023-02-12T03:11:29.082Z,22.34
2023-02-12T03:14:01.076Z,22.37
2023-02-12T03:16:34.389Z,22.41
2023-02-12T03:19:07.913Z,22.42
2023-02-12T03:21:44.145Z,22.43
2023-02-12T03:24:15.555Z,22.43
2023-02-12T03:26:47.903Z,22.43
2023-02-12T03:29:16.276Z,22.42
2023-02-12T03:32:04.528Z,22.43
2023-02-12T03:34:46.538Z,21.90
2023-02-12T03:37:19.806Z,22.26
2023-02-12T03:39:53.970Z,22.34
2023-02-12T03:42:30.720Z,22.40
2023-02-12T03:45:02.688Z,22.42
2023-02-12T03:47:39.198Z,22.41
2023-02-12T03:50:13.350Z,22.41
2023-02-12T03:52:42.249Z,22.41
2023-02-12T03:55:10.498Z,22.43
2023-02-12T03:57:41.658Z,22.40
2023-02-12T04:00:11.802Z,22.41
2023-02-12T04:02:44.177Z,22.40
2023-02-12T04:05:20.304Z,22.41
2023-02-12T04:07:48.039Z,22.40
2023-02-12T04:10:16.909Z,22.43
2023-02-12T04:12:53.393Z,22.44
2023-02-12T04:15:37.930Z,22.41
2023-02-12T04:18:12.860Z,22.42
2023-02-12T04:20:53.564Z,22.43
2023-02-12T04:23:39.833Z,22.43
2023-02-12T04:26:17.869Z,22.42
2023-02-12T04:28:52.630Z,22.42
2023-02-12T04:31:30.119Z,22.43
2023-02-12T04:34:08.986Z,22.44
2023-02-12T04:36:42.652Z,22.42
2023-02-12T04:39:16.458Z,22.44
2023-02-12T04:41:44.607Z,22.41
2023-02-12T04:44:18.234Z,22.43
2023-02-12T04:46:45.990Z,22.46
2023-02-12T04:49:22.389Z,22.43
2023-02-12T04:51:50.866Z,22.43
2023-02-12T04:54:20.368Z,22.43
2023-02-12T04:56:48.431Z,22.47
2023-02-12T04:59:16.130Z,22.47
2023-02-12T05:01:45.079Z,22.47
2023-02-12T05:04:16.159Z,22.44
2023-02-12T05:06:45.069Z,22.49
2023-02-12T05:09:16.500Z,22.47
2023-02-12T05:11:44.841Z,22.47
2023-02-12T05:14:13.246Z,22.45
2023-02-12T05:16:41.592Z,22.45
2023-02-12T05:19:09.644Z,22.48
2023-02-12T05:21:39.246Z,22.47
2023-02-12T05:24:07.770Z,22.47
2023-02-12T05:26:36.102Z,22.45
2023-02-12T05:29:04.169Z,22.49
2023-02-12T05:31:32.258Z,22.47
2023-02-12T05:33:59.857Z,22.45
2023-02-12T05:36:27.837Z,22.48
2023-02-12T05:38:59.765Z,22.49
2023-02-12T05:41:27.994Z,22.47
2023-02-12T05:43:55.629Z,22.50
2023-02-12T05:46:23.316Z,22.52
2023-02-12T05:48:50.833Z,22.52
2023-02-12T05:51:21.025Z,22.52
2023-02-12T05:53:49.919Z,22.50
2023-02-12T05:56:20.758Z,22.49
2023-02-12T05:58:52.401Z,22.51
2023-02-12T06:01:22.646Z,22.53
2023-02-12T06:03:51.319Z,22.51
2023-02-12T06:06:19.465Z,22.53
2023-02-12T06:08:48.628Z,22.52
2023-02-12T06:11:19.178Z,22.51
2023-02-12T06:13:47.394Z,22.52
2023-02-12T06:16:20.554Z,22.52
2023-02-12T06:18:49.182Z,22.51
2023-02-12T06:21:18.361Z,22.53
2023-02-12T06:23:47.485Z,22.53
2023-02-12T06:26:15.650Z,22.52
2023-02-12T06:28:45.163Z,22.51
2023-02-12T06:31:20.848Z,22.52
2023-02-12T06:33:50.141Z,22.51
2023-02-12T06:36:18.510Z,22.54
2023-02-12T06:38:46.289Z,22.55
2023-02-12T06:41:14.008Z,22.55
2023-02-12T06:43:41.723Z,22.47
2023-02-12T06:46:11.793Z,22.45
2023-02-12T06:48:39.398Z,22.48
2023-02-12T06:51:09.036Z,22.48
2023-02-12T06:53:37.888Z,22.50
2023-02-12T06:56:07.792Z,22.49
2023-02-12T06:58:35.478Z,22.50
2023-02-12T07:01:12.917Z,22.50
2023-02-12T07:03:42.040Z,22.48
2023-02-12T07:06:10.648Z,22.48
2023-02-12T07:08:38.894Z,22.46
2023-02-12T07:11:07.784Z,22.40
2023-02-12T07:13:36.718Z,22.44
2023-02-12T07:16:05.905Z,22.49
2023-02-12T07:18:35.957Z,22.49
2023-02-12T07:21:05.495Z,22.52
2023-02-12T07:23:33.606Z,22.54
2023-02-12T07:26:03.602Z,22.52
2023-02-12T07:28:31.175Z,22.53
2023-02-12T07:30:59.145Z,22.53
2023-02-12T07:33:27.311Z,22.54
2023-02-12T07:36:00.769Z,22.55
2023-02-12T07:38:29.245Z,22.54
2023-02-12T07:40:56.743Z,22.54
2023-02-12T07:43:24.970Z,22.55
2023-02-12T07:45:53.522Z,22.56
2023-02-12T07:48:21.696Z,22.53
2023-02-12T07:50:49.495Z,22.56
2023-02-12T07:53:19.275Z,22.57
2023-02-12T07:55:46.826Z,22.57
2023-02-12T07:58:14.772Z,22.57
2023-02-12T08:00:43.386Z,22.57
2023-02-12T08:03:10.882Z,22.55
2023-02-12T08:05:39.045Z,22.56
2023-02-12T08:08:07.568Z,22.57
2023-02-12T08:10:36.935Z,22.52
2023-02-12T08:13:05.571Z,22.54
2023-02-12T08:15:33.234Z,22.53
2023-02-12T08:18:00.878Z,22.55
2023-02-12T08:20:28.769Z,22.55
2023-02-12T08:22:56.443Z,22.56
2023-02-12T08:25:23.926Z,22.54
2023-02-12T08:27:53.012Z,22.55
2023-02-12T08:30:20.981Z,22.56
2023-02-12T08:32:49.769Z,22.57
2023-02-12T08:35:17.686Z,22.57
2023-02-12T08:37:45.218Z,22.57
2023-02-12T08:40:13.378Z,22.56
2023-02-12T08:42:40.962Z,22.57
2023-02-12T08:45:10.767Z,22.57
2023-02-12T08:47:38.649Z,22.59
2023-02-12T08:50:07.286Z,22.59
2023-02-12T08:52:35.436Z,22.59
2023-02-12T08:55:03.549Z,22.57
2023-02-12T08:57:31.100Z,22.61
2023-02-12T08:59:58.850Z,22.62
2023-02-12T09:02:28.208Z,22.60
2023-02-12T09:04:55.830Z,22.61
2023-02-12T09:07:23.446Z,22.59
2023-02-12T09:09:51.002Z,22.61
2023-02-12T09:12:18.593Z,22.63
2023-02-12T09:14:46.117Z,22.63
2023-02-12T09:17:13.749Z,22.64
2023-02-12T09:19:43.027Z,22.66
2023-02-12T09:22:10.650Z,22.67
2023-02-12T09:24:38.277Z,22.68
2023-02-12T09:27:05.914Z,22.66
2023-02-12T09:29:33.725Z,22.67
2023-02-12T09:32:01.275Z,22.68
2023-02-12T09:34:28.909Z,22.69
2023-02-12T09:36:58.102Z,22.69
2023-02-12T09:39:25.594Z,22.70
2023-02-12T09:42:43.816Z,22.71
2023-02-12T09:45:18.654Z,22.70
2023-02-12T09:47:54.517Z,22.71
2023-02-12T09:50:37.476Z,22.73
2023-02-12T09:53:06.981Z,22.71
2023-02-12T09:55:35.820Z,22.70
2023-02-12T09:58:12.324Z,22.71
2023-02-12T10:00:40.162Z,22.71
2023-02-12T10:03:14.960Z,22.72
2023-02-12T10:05:47.547Z,22.71
2023-02-12T10:08:32.203Z,22.71
2023-02-12T10:11:14.093Z,22.72
2023-02-12T10:13:50.240Z,22.70
2023-02-12T10:16:37.296Z,22.70
2023-02-12T10:19:23.711Z,22.72
2023-02-12T10:22:01.123Z,22.73
2023-02-12T10:24:43.773Z,22.71
2023-02-12T10:27:15.457Z,22.74
2023-02-12T10:29:45.310Z,22.75
2023-02-12T10:32:21.805Z,22.73
2023-02-12T10:34:50.945Z,22.75
2023-02-12T10:37:26.508Z,22.73
2023-02-12T10:40:00.880Z,22.79
2023-02-12T10:42:38.552Z,22.81
2023-02-12T10:45:13.023Z,22.93
2023-02-12T10:47:40.825Z,22.79
2023-02-12T10:50:20.001Z,22.80
2023-02-12T10:52:53.359Z,22.79
2023-02-12T10:55:30.989Z,22.80
2023-02-12T10:57:59.852Z,22.80
2023-02-12T11:00:30.810Z,22.80
2023-02-12T11:03:05.237Z,22.81
2023-02-12T11:05:35.932Z,22.85
2023-02-12T11:08:04.399Z,22.81
2023-02-12T11:10:38.359Z,22.80
2023-02-12T11:13:06.625Z,22.81
2023-02-12T11:15:38.718Z,22.80
2023-02-12T11:18:07.979Z,22.81
2023-02-12T11:20:39.862Z,22.82
2023-02-12T11:23:24.616Z,22.83
2023-02-12T11:25:59.136Z,22.82
2023-02-12T11:28:28.060Z,22.85
2023-02-12T11:30:58.256Z,22.84
2023-02-12T11:33:29.271Z,22.84
2023-02-12T11:36:00.289Z,22.84
2023-02-12T11:38:31.791Z,22.88
2023-02-12T11:41:04.712Z,22.90
2023-02-12T11:43:35.292Z,22.92
2023-02-12T11:46:04.996Z,22.90
2023-02-12T11:48:36.428Z,22.90
2023-02-12T11:51:07.698Z,22.88
2023-02-12T11:53:38.948Z,22.86
2023-02-12T11:56:10.562Z,22.83
2023-02-12T11:58:39.041Z,22.85
2023-02-12T12:01:14.305Z,22.82
2023-02-12T12:03:49.865Z,22.82
2023-02-12T12:06:26.097Z,22.80
2023-02-12T12:09:00.583Z,22.82
2023-02-12T12:11:37.904Z,22.81
2023-02-12T12:14:14.617Z,22.82
2023-02-12T12:16:49.636Z,22.81
2023-02-12T12:19:24.108Z,22.82
2023-02-12T12:22:00.966Z,22.84
2023-02-12T12:24:38.386Z,22.83
2023-02-12T12:27:16.060Z,22.84
2023-02-12T12:29:51.890Z,22.83
2023-02-12T12:32:23.233Z,22.84
2023-02-12T12:34:50.853Z,22.84
2023-02-12T12:37:26.915Z,22.84
2023-02-12T12:40:10.042Z,22.85
2023-02-12T12:42:58.433Z,22.85
2023-02-12T12:45:55.974Z,22.84
2023-02-12T12:48:43.398Z,22.84
2023-02-12T12:51:23.301Z,22.84
2023-02-12T12:54:05.652Z,22.82
2023-02-12T12:56:49.625Z,22.84
2023-02-12T12:59:43.943Z,22.83
2023-02-12T13:02:48.007Z,22.84
2023-02-12T13:05:40.215Z,22.85
2023-02-12T13:08:18.338Z,22.85
2023-02-12T13:10:50.972Z,22.84
2023-02-12T13:13:29.980Z,22.88
2023-02-12T13:16:09.612Z,22.85
2023-02-12T13:18:48.897Z,22.85
2023-02-12T13:21:34.225Z,22.84
2023-02-12T13:24:07.646Z,22.86
2023-02-12T13:26:46.009Z,22.83
2023-02-12T13:29:20.041Z,22.82
2023-02-12T13:31:56.153Z,22.81
2023-02-12T13:34:27.952Z,22.83
2023-02-12T13:36:57.622Z,22.83
2023-02-12T13:39:31.393Z,22.89
2023-02-12T13:42:16.364Z,22.88
2023-02-12T13:44:51.376Z,22.91
2023-02-12T13:47:30.724Z,22.85
2023-02-12T13:50:04.108Z,22.87
2023-02-12T13:52:36.994Z,22.85
2023-02-12T13:55:22.630Z,22.86
2023-02-12T13:58:25.590Z,22.85
2023-02-12T14:01:01.363Z,22.83
2023-02-12T14:03:32.054Z,22.86
2023-02-12T14:06:15.213Z,22.86
2023-02-12T14:08:45.315Z,22.84
2023-02-12T14:11:14.602Z,22.85
2023-02-12T14:13:54.317Z,22.86
2023-02-12T14:16:35.667Z,22.78
2023-02-12T14:19:38.983Z,22.79
2023-02-12T14:22:13.704Z,22.81
2023-02-12T14:24:48.640Z,22.83
2023-02-12T14:27:32.669Z,22.82
2023-02-12T14:30:31.833Z,22.82
2023-02-12T14:33:11.428Z,22.85
2023-02-12T14:35:40.318Z,22.83
2023-02-12T14:38:49.400Z,22.82
2023-02-12T14:41:24.372Z,22.82
2023-02-12T14:43:52.101Z,22.83
2023-02-12T14:46:44.673Z,22.82
2023-02-12T14:49:23.883Z,22.82
2023-02-12T14:51:58.038Z,22.82
2023-02-12T14:54:30.951Z,22.82
2023-02-12T14:57:01.712Z,22.80
2023-02-12T14:59:34.113Z,22.82
2023-02-12T15:02:04.201Z,22.80
2023-02-12T15:04:37.268Z,22.81
2023-02-12T15:07:10.886Z,22.80
2023-02-12T15:09:46.857Z,22.80
2023-02-12T15:12:21.166Z,22.78
2023-02-12T15:14:56.734Z,22.80
2023-02-12T15:17:31.163Z,22.78
2023-02-12T15:20:03.011Z,22.79
2023-02-12T15:22:35.210Z,22.80
2023-02-12T15:25:15.768Z,22.82
2023-02-12T15:27:44.125Z,22.82
2023-02-12T15:30:25.683Z,22.83
2023-02-12T15:32:57.221Z,22.82
2023-02-12T15:35:28.719Z,22.80
2023-02-12T15:37:59.492Z,22.84
2023-02-12T15:40:27.952Z,22.84
2023-02-12T15:42:57.544Z,22.84
2023-02-12T15:45:27.198Z,22.84
2023-02-12T15:48:03.174Z,22.85
2023-02-12T15:50:33.085Z,22.86
2023-02-12T15:53:03.150Z,22.85
2023-02-12T15:55:38.811Z,22.84
2023-02-12T15:58:26.134Z,22.80
2023-02-12T16:00:55.495Z,22.84
2023-02-12T16:03:25.938Z,22.84
2023-02-12T16:06:01.297Z,22.84
2023-02-12T16:08:33.137Z,22.85
2023-02-12T16:11:02.301Z,22.84
2023-02-12T16:13:34.696Z,22.82
2023-02-12T16:16:08.551Z,22.81
2023-02-12T16:18:36.199Z,22.79
2023-02-12T16:21:06.634Z,22.78
2023-02-12T16:23:36.073Z,22.79
2023-02-12T16:26:04.126Z,22.80
2023-02-12T16:28:32.570Z,22.77
2023-02-12T16:31:12.126Z,22.76
2023-02-12T16:33:42.959Z,22.77
2023-02-12T16:36:14.384Z,22.76
2023-02-12T16:38:45.827Z,22.77
2023-02-12T16:41:22.822Z,22.76
2023-02-12T16:43:52.295Z,22.76
2023-02-12T16:46:20.741Z,22.75
2023-02-12T16:48:51.835Z,22.72
2023-02-12T16:51:25.382Z,22.76
2023-02-12T16:53:55.594Z,22.75
2023-02-12T16:56:24.089Z,22.76
2023-02-12T16:58:53.394Z,22.75
2023-02-12T17:01:24.193Z,22.74
2023-02-12T17:03:53.456Z,22.75
2023-02-12T17:06:22.723Z,22.78
2023-02-12T17:08:50.475Z,22.81
2023-02-12T17:11:20.332Z,22.82
2023-02-12T17:13:49.612Z,22.81
2023-02-12T17:16:29.974Z,22.83
2023-02-12T17:18:58.845Z,22.83
2023-02-12T17:21:29.060Z,22.84
2023-02-12T17:23:57.512Z,22.86
2023-02-12T17:26:26.739Z,22.86
2023-02-12T17:28:54.472Z,22.85
2023-02-12T17:31:22.602Z,22.83
2023-02-12T17:33:50.227Z,22.83
2023-02-12T17:36:17.814Z,22.80
2023-02-12T17:38:45.483Z,22.79
2023-02-12T17:41:13.155Z,22.79
2023-02-12T17:43:42.434Z,22.78
2023-02-12T17:46:11.125Z,22.76
2023-02-12T17:48:39.065Z,22.77
2023-02-12T17:51:07.189Z,22.77
2023-02-12T17:53:34.978Z,22.76
2023-02-12T17:56:02.712Z,22.75
2023-02-12T17:58:30.461Z,22.75
2023-02-12T18:01:05.121Z,22.72
2023-02-12T18:03:33.390Z,22.75
2023-02-12T18:06:00.994Z,22.75
2023-02-12T18:08:29.112Z,22.72
2023-02-12T18:10:57.176Z,22.74
2023-02-12T18:13:25.482Z,22.72
2023-02-12T18:15:53.652Z,22.73
2023-02-12T18:18:23.113Z,22.73
2023-02-12T18:20:50.781Z,22.72
2023-02-12T18:23:18.497Z,22.73
2023-02-12T18:25:46.380Z,22.69
2023-02-12T18:28:14.361Z,22.67
2023-02-12T18:30:42.168Z,22.65
2023-02-12T18:33:10.095Z,22.63
2023-02-12T18:35:39.213Z,22.63
2023-02-12T18:38:06.848Z,22.60
2023-02-12T18:40:34.441Z,22.56
2023-02-12T18:43:01.910Z,22.59
2023-02-12T18:45:30.001Z,22.58
2023-02-12T18:47:57.710Z,22.59
2023-02-12T18:50:25.417Z,22.58
2023-02-12T18:52:54.976Z,22.57
2023-02-12T18:55:22.297Z,22.57
2023-02-12T18:57:49.924Z,22.59
2023-02-12T19:00:18.023Z,22.54
2023-02-12T19:02:45.775Z,22.58
2023-02-12T19:05:15.168Z,22.58
2023-02-12T19:07:43.345Z,22.57
2023-02-12T19:10:12.859Z,22.57
2023-02-12T19:12:40.480Z,22.54
2023-02-12T19:15:08.785Z,22.57
2023-02-12T19:17:36.392Z,22.58
2023-02-12T19:20:04.304Z,22.54
2023-02-12T19:22:31.883Z,22.56
2023-02-12T19:24:59.593Z,22.53
2023-02-12T19:27:28.775Z,22.56
2023-02-12T19:29:56.281Z,22.54
2023-02-12T19:32:23.861Z,22.55
2023-02-12T19:34:51.553Z,22.53
2023-02-12T19:37:19.118Z,22.53
2023-02-12T19:39:46.698Z,22.51
2023-02-12T19:42:14.243Z,22.51
2023-02-12T19:44:43.428Z,22.48
2023-02-12T19:47:11.012Z,22.48
2023-02-12T19:49:39.081Z,22.44
2023-02-12T19:52:06.590Z,22.43
2023-02-12T19:54:34.214Z,22.46
2023-02-12T19:57:01.980Z,22.48
2023-02-12T19:59:29.501Z,22.50
2023-02-12T20:01:58.560Z,22.50
2023-02-12T20:04:26.719Z,22.54
2023-02-12T20:06:54.419Z,22.54
2023-02-12T20:09:22.839Z,22.53
2023-02-12T20:11:50.670Z,22.54
2023-02-12T20:14:18.324Z,22.54
2023-02-12T20:16:45.941Z,22.55
2023-02-12T20:19:17.848Z,22.52
2023-02-12T20:21:46.000Z,22.54
2023-02-12T20:24:13.612Z,22.53
2023-02-12T20:26:41.200Z,22.53
2023-02-12T20:29:08.829Z,22.55
2023-02-12T20:31:37.863Z,22.54
2023-02-12T20:34:07.512Z,22.53
2023-02-12T20:36:40.433Z,22.52
2023-02-12T20:39:09.810Z,22.53
2023-02-12T20:41:37.909Z,22.54
2023-02-12T20:44:06.933Z,22.54
2023-02-12T20:46:35.052Z,22.53
2023-02-12T20:49:03.010Z,22.54
2023-02-12T20:51:31.154Z,22.52
2023-02-12T20:54:01.893Z,22.51
2023-02-12T20:56:31.928Z,22.54
2023-02-12T20:59:00.029Z,22.52
2023-02-12T21:01:29.614Z,22.51
2023-02-12T21:03:57.520Z,22.51
2023-02-12T21:06:25.255Z,22.50
2023-02-12T21:08:52.776Z,22.50
2023-02-12T21:11:23.835Z,22.50
2023-02-12T21:13:59.316Z,22.50
2023-02-12T21:16:32.882Z,22.50
2023-02-12T21:19:00.784Z,22.50
2023-02-12T21:21:30.028Z,22.48
2023-02-12T21:23:58.900Z,22.49
2023-02-12T21:26:29.550Z,22.50
2023-02-12T21:29:00.569Z,22.50
2023-02-12T21:31:30.356Z,22.50
2023-02-12T21:33:59.505Z,22.51
2023-02-12T21:36:29.241Z,22.51
2023-02-12T21:38:56.412Z,22.50
2023-02-12T21:41:25.376Z,22.50
2023-02-12T21:43:57.249Z,22.48
2023-02-12T21:46:25.314Z,22.49
2023-02-12T21:48:53.577Z,22.51
2023-02-12T21:51:23.413Z,22.48
2023-02-12T21:53:52.664Z,22.49
2023-02-12T21:56:21.317Z,22.48
2023-02-12T21:58:49.816Z,22.47
2023-02-12T22:01:20.678Z,22.45
2023-02-12T22:03:48.228Z,22.46
2023-02-12T22:06:17.242Z,22.44
2023-02-12T22:08:44.973Z,22.44
2023-02-12T22:11:13.910Z,22.44
2023-02-12T22:13:41.897Z,22.43
2023-02-12T22:16:11.534Z,22.42
2023-02-12T22:18:41.308Z,22.42
2023-02-12T22:21:13.304Z,22.42
2023-02-12T22:23:41.789Z,22.41
2023-02-12T22:26:11.172Z,22.40
2023-02-12T22:28:40.968Z,22.39
2023-02-12T22:31:09.106Z,22.40
2023-02-12T22:33:36.797Z,22.38
2023-02-12T22:36:08.373Z,22.39
2023-02-12T22:38:36.611Z,22.39
2023-02-12T22:41:05.690Z,22.39
2023-02-12T22:43:34.469Z,22.40
2023-02-12T22:46:02.342Z,22.39
2023-02-12T22:48:30.076Z,22.37
2023-02-12T22:50:58.278Z,22.35
2023-02-12T22:53:27.558Z,22.37
2023-02-12T22:55:55.179Z,22.37
2023-02-12T22:58:22.702Z,22.35
2023-02-12T23:00:50.405Z,22.37
2023-02-12T23:03:18.002Z,22.34
2023-02-12T23:05:45.521Z,22.35
2023-02-12T23:08:13.100Z,22.36
2023-02-12T23:10:42.083Z,22.34
2023-02-12T23:13:10.494Z,22.34
2023-02-12T23:15:38.097Z,22.34
2023-02-12T23:18:05.790Z,22.31
2023-02-12T23:20:33.279Z,22.31
2023-02-12T23:23:00.821Z,22.33
2023-02-12T23:25:29.378Z,22.34
2023-02-12T23:27:58.476Z,22.34
2023-02-12T23:30:26.183Z,22.33
2023-02-12T23:32:53.769Z,22.30
2023-02-12T23:35:21.660Z,22.34
2023-02-12T23:37:49.207Z,22.35
2023-02-12T23:40:17.322Z,22.34
2023-02-12T23:42:44.927Z,22.34
2023-02-12T23:45:14.446Z,22.34
2023-02-12T23:47:42.179Z,22.34
2023-02-12T23:50:10.584Z,22.35
2023-02-12T23:52:38.121Z,22.36
2023-02-12T23:55:06.430Z,22.37
2023-02-12T23:57:34.111Z,22.37
